sensor_id;sensor_type;location;lat;lon;timestamp;P1;durP1;ratioP1;P2;durP2;ratioP2
36651;SDS011;53334;51.976;20.144;2023-05-10T00:01:03;8.85;;;4.82;;
36651;SDS011;53334;51.976;20.144;2023-05-10T00:03:36;6.65;;;5.95;;
36651;SDS011;53334;51.976;20.144;2023-05-10T00:06:09;11.55;;;6.40;;
36651;SDS011;53334;51.976;20.144;2023-05-10T00:11:18;7.53;;;4.72;;
36651;SDS011;53334;51.976;20.144;2023-05-10T00:13:53;8.55;;;4.60;;
36651;SDS011;53334;51.976;20.144;2023-05-10T00:16:27;5.95;;;4.80;;
36651;SDS011;53334;51.976;20.144;2023-05-10T00:21:33;7.82;;;5.10;;
36651;SDS011;53334;51.976;20.144;2023-05-10T00:24:08;6.88;;;5.35;;
36651;SDS011;53334;51.976;20.144;2023-05-10T00:26:41;6.60;;;4.93;;
36651;SDS011;53334;51.976;20.144;2023-05-10T00:29:15;5.95;;;5.28;;
36651;SDS011;53334;51.976;20.144;2023-05-10T00:31:48;7.07;;;5.47;;
36651;SDS011;53334;51.976;20.144;2023-05-10T00:34:22;5.85;;;5.13;;
36651;SDS011;53334;51.976;20.144;2023-05-10T00:36:56;7.05;;;5.30;;
36651;SDS011;53334;51.976;20.144;2023-05-10T00:39:30;6.40;;;4.68;;
36651;SDS011;53334;51.976;20.144;2023-05-10T00:42:04;5.40;;;4.63;;
36651;SDS011;53334;51.976;20.144;2023-05-10T00:44:37;10.60;;;5.35;;
36651;SDS011;53334;51.976;20.144;2023-05-10T00:47:10;6.00;;;4.90;;
36651;SDS011;53334;51.976;20.144;2023-05-10T00:49:45;8.63;;;4.85;;
36651;SDS011;53334;51.976;20.144;2023-05-10T00:52:18;4.90;;;4.40;;
36651;SDS011;53334;51.976;20.144;2023-05-10T00:54:53;7.03;;;5.22;;
36651;SDS011;53334;51.976;20.144;2023-05-10T00:57:27;7.65;;;5.35;;
36651;SDS011;53334;51.976;20.144;2023-05-10T01:00:02;7.90;;;4.60;;
36651;SDS011;53334;51.976;20.144;2023-05-10T01:02:36;5.82;;;4.82;;
36651;SDS011;53334;51.976;20.144;2023-05-10T01:05:11;6.43;;;5.10;;
36651;SDS011;53334;51.976;20.144;2023-05-10T01:07:44;9.23;;;5.88;;
36651;SDS011;53334;51.976;20.144;2023-05-10T01:10:19;6.47;;;4.88;;
36651;SDS011;53334;51.976;20.144;2023-05-10T01:12:53;7.20;;;5.65;;
36651;SDS011;53334;51.976;20.144;2023-05-10T01:15:27;5.85;;;4.55;;
36651;SDS011;53334;51.976;20.144;2023-05-10T01:18:00;6.07;;;5.47;;
36651;SDS011;53334;51.976;20.144;2023-05-10T01:20:35;8.65;;;5.85;;
36651;SDS011;53334;51.976;20.144;2023-05-10T01:23:21;7.70;;;5.65;;
36651;SDS011;53334;51.976;20.144;2023-05-10T01:26:18;7.00;;;4.75;;
36651;SDS011;53334;51.976;20.144;2023-05-10T01:29:24;6.30;;;4.35;;
36651;SDS011;53334;51.976;20.144;2023-05-10T01:32:41;5.93;;;4.70;;
36651;SDS011;53334;51.976;20.144;2023-05-10T01:35:23;6.88;;;5.00;;
36651;SDS011;53334;51.976;20.144;2023-05-10T01:38:04;6.07;;;4.68;;
36651;SDS011;53334;51.976;20.144;2023-05-10T01:40:42;5.43;;;4.63;;
36651;SDS011;53334;51.976;20.144;2023-05-10T01:43:26;5.97;;;4.50;;
36651;SDS011;53334;51.976;20.144;2023-05-10T01:46:05;6.32;;;4.80;;
36651;SDS011;53334;51.976;20.144;2023-05-10T01:48:47;6.07;;;4.63;;
36651;SDS011;53334;51.976;20.144;2023-05-10T01:51:24;6.18;;;5.15;;
36651;SDS011;53334;51.976;20.144;2023-05-10T01:54:01;6.13;;;4.85;;
36651;SDS011;53334;51.976;20.144;2023-05-10T01:56:36;9.60;;;4.82;;
36651;SDS011;53334;51.976;20.144;2023-05-10T01:59:12;6.15;;;4.90;;
36651;SDS011;53334;51.976;20.144;2023-05-10T02:01:47;7.57;;;5.22;;
36651;SDS011;53334;51.976;20.144;2023-05-10T02:04:23;7.57;;;5.18;;
36651;SDS011;53334;51.976;20.144;2023-05-10T02:06:59;5.63;;;5.13;;
36651;SDS011;53334;51.976;20.144;2023-05-10T02:09:33;6.78;;;4.95;;
36651;SDS011;53334;51.976;20.144;2023-05-10T02:12:08;5.32;;;4.80;;
36651;SDS011;53334;51.976;20.144;2023-05-10T02:14:43;6.25;;;5.05;;
36651;SDS011;53334;51.976;20.144;2023-05-10T02:17:17;6.25;;;5.25;;
36651;SDS011;53334;51.976;20.144;2023-05-10T02:19:54;6.15;;;4.75;;
36651;SDS011;53334;51.976;20.144;2023-05-10T02:22:29;5.32;;;4.82;;
36651;SDS011;53334;51.976;20.144;2023-05-10T02:25:04;7.53;;;4.95;;
36651;SDS011;53334;51.976;20.144;2023-05-10T02:27:39;7.28;;;4.80;;
36651;SDS011;53334;51.976;20.144;2023-05-10T02:30:15;6.38;;;4.85;;
36651;SDS011;53334;51.976;20.144;2023-05-10T02:32:51;6.03;;;5.07;;
36651;SDS011;53334;51.976;20.144;2023-05-10T02:35:26;7.35;;;5.07;;
36651;SDS011;53334;51.976;20.144;2023-05-10T02:38:00;5.10;;;4.60;;
36651;SDS011;53334;51.976;20.144;2023-05-10T02:40:34;4.65;;;4.00;;
36651;SDS011;53334;51.976;20.144;2023-05-10T02:43:09;6.10;;;4.40;;
36651;SDS011;53334;51.976;20.144;2023-05-10T02:45:47;5.13;;;4.20;;
36651;SDS011;53334;51.976;20.144;2023-05-10T02:48:20;7.30;;;4.53;;
36651;SDS011;53334;51.976;20.144;2023-05-10T02:50:56;4.65;;;4.25;;
36651;SDS011;53334;51.976;20.144;2023-05-10T02:53:36;6.90;;;5.68;;
36651;SDS011;53334;51.976;20.144;2023-05-10T02:56:13;5.55;;;4.60;;
36651;SDS011;53334;51.976;20.144;2023-05-10T03:01:30;4.70;;;4.30;;
36651;SDS011;53334;51.976;20.144;2023-05-10T03:04:04;8.63;;;4.75;;
36651;SDS011;53334;51.976;20.144;2023-05-10T03:06:39;6.68;;;4.95;;
36651;SDS011;53334;51.976;20.144;2023-05-10T03:09:13;5.65;;;4.40;;
36651;SDS011;53334;51.976;20.144;2023-05-10T03:11:50;7.00;;;5.45;;
36651;SDS011;53334;51.976;20.144;2023-05-10T03:14:37;5.25;;;3.90;;
36651;SDS011;53334;51.976;20.144;2023-05-10T03:17:19;6.50;;;3.97;;
36651;SDS011;53334;51.976;20.144;2023-05-10T03:19:57;5.22;;;4.10;;
36651;SDS011;53334;51.976;20.144;2023-05-10T03:22:37;5.00;;;4.50;;
36651;SDS011;53334;51.976;20.144;2023-05-10T03:25:12;5.50;;;4.15;;
36651;SDS011;53334;51.976;20.144;2023-05-10T03:27:47;6.85;;;4.70;;
36651;SDS011;53334;51.976;20.144;2023-05-10T03:30:21;5.13;;;4.40;;
36651;SDS011;53334;51.976;20.144;2023-05-10T03:32:55;4.88;;;4.32;;
36651;SDS011;53334;51.976;20.144;2023-05-10T03:35:29;4.15;;;3.65;;
36651;SDS011;53334;51.976;20.144;2023-05-10T03:38:04;5.50;;;4.57;;
36651;SDS011;53334;51.976;20.144;2023-05-10T03:40:38;5.82;;;4.47;;
36651;SDS011;53334;51.976;20.144;2023-05-10T03:43:12;6.38;;;5.38;;
36651;SDS011;53334;51.976;20.144;2023-05-10T03:45:46;4.82;;;4.22;;
36651;SDS011;53334;51.976;20.144;2023-05-10T03:48:19;4.93;;;4.22;;
36651;SDS011;53334;51.976;20.144;2023-05-10T03:50:52;5.30;;;4.47;;
36651;SDS011;53334;51.976;20.144;2023-05-10T03:53:27;5.90;;;4.32;;
36651;SDS011;53334;51.976;20.144;2023-05-10T03:56:00;5.30;;;4.15;;
36651;SDS011;53334;51.976;20.144;2023-05-10T03:58:33;4.85;;;4.35;;
36651;SDS011;53334;51.976;20.144;2023-05-10T04:01:06;5.38;;;4.88;;
36651;SDS011;53334;51.976;20.144;2023-05-10T04:03:40;6.30;;;4.63;;
36651;SDS011;53334;51.976;20.144;2023-05-10T04:06:13;5.22;;;4.72;;
36651;SDS011;53334;51.976;20.144;2023-05-10T04:08:48;6.63;;;5.03;;
36651;SDS011;53334;51.976;20.144;2023-05-10T04:11:22;5.65;;;4.43;;
36651;SDS011;53334;51.976;20.144;2023-05-10T04:13:56;4.85;;;4.28;;
36651;SDS011;53334;51.976;20.144;2023-05-10T04:16:29;4.63;;;4.07;;
36651;SDS011;53334;51.976;20.144;2023-05-10T04:19:02;7.22;;;4.28;;
36651;SDS011;53334;51.976;20.144;2023-05-10T04:21:36;4.88;;;4.32;;
36651;SDS011;53334;51.976;20.144;2023-05-10T04:24:10;5.80;;;4.60;;
36651;SDS011;53334;51.976;20.144;2023-05-10T04:26:44;5.57;;;4.10;;
36651;SDS011;53334;51.976;20.144;2023-05-10T04:29:18;5.28;;;4.35;;
36651;SDS011;53334;51.976;20.144;2023-05-10T04:31:51;4.57;;;4.18;;
36651;SDS011;53334;51.976;20.144;2023-05-10T04:34:24;5.20;;;4.03;;
36651;SDS011;53334;51.976;20.144;2023-05-10T04:36:58;6.15;;;4.95;;
36651;SDS011;53334;51.976;20.144;2023-05-10T04:39:32;5.18;;;4.43;;
36651;SDS011;53334;51.976;20.144;2023-05-10T04:42:06;4.90;;;4.32;;
36651;SDS011;53334;51.976;20.144;2023-05-10T04:44:39;6.05;;;4.85;;
36651;SDS011;53334;51.976;20.144;2023-05-10T04:47:13;4.75;;;4.25;;
36651;SDS011;53334;51.976;20.144;2023-05-10T04:49:47;4.90;;;4.35;;
36651;SDS011;53334;51.976;20.144;2023-05-10T04:52:21;4.85;;;4.18;;
36651;SDS011;53334;51.976;20.144;2023-05-10T04:54:55;4.50;;;4.07;;
36651;SDS011;53334;51.976;20.144;2023-05-10T04:57:29;5.10;;;4.60;;
36651;SDS011;53334;51.976;20.144;2023-05-10T05:00:02;4.47;;;4.07;;
36651;SDS011;53334;51.976;20.144;2023-05-10T05:02:36;5.10;;;3.97;;
36651;SDS011;53334;51.976;20.144;2023-05-10T05:05:09;5.28;;;4.40;;
36651;SDS011;53334;51.976;20.144;2023-05-10T05:07:42;4.75;;;4.35;;
36651;SDS011;53334;51.976;20.144;2023-05-10T05:10:17;5.55;;;3.83;;
36651;SDS011;53334;51.976;20.144;2023-05-10T05:12:51;6.00;;;3.50;;
36651;SDS011;53334;51.976;20.144;2023-05-10T05:15:24;4.80;;;3.97;;
36651;SDS011;53334;51.976;20.144;2023-05-10T05:17:57;4.70;;;4.15;;
36651;SDS011;53334;51.976;20.144;2023-05-10T05:20:31;4.38;;;3.97;;
36651;SDS011;53334;51.976;20.144;2023-05-10T05:23:05;4.60;;;4.00;;
36651;SDS011;53334;51.976;20.144;2023-05-10T05:25:39;6.00;;;4.30;;
36651;SDS011;53334;51.976;20.144;2023-05-10T05:28:13;4.88;;;3.58;;
36651;SDS011;53334;51.976;20.144;2023-05-10T05:30:46;3.75;;;3.45;;
36651;SDS011;53334;51.976;20.144;2023-05-10T05:33:20;4.80;;;4.20;;
36651;SDS011;53334;51.976;20.144;2023-05-10T05:35:53;4.45;;;3.97;;
36651;SDS011;53334;51.976;20.144;2023-05-10T05:38:26;4.35;;;3.65;;
36651;SDS011;53334;51.976;20.144;2023-05-10T05:41:01;6.45;;;3.97;;
36651;SDS011;53334;51.976;20.144;2023-05-10T05:43:34;4.45;;;4.05;;
36651;SDS011;53334;51.976;20.144;2023-05-10T05:46:09;4.40;;;3.42;;
36651;SDS011;53334;51.976;20.144;2023-05-10T05:48:42;4.32;;;3.72;;
36651;SDS011;53334;51.976;20.144;2023-05-10T05:51:15;7.47;;;4.03;;
36651;SDS011;53334;51.976;20.144;2023-05-10T05:53:48;4.28;;;3.88;;
36651;SDS011;53334;51.976;20.144;2023-05-10T05:56:23;4.63;;;4.15;;
36651;SDS011;53334;51.976;20.144;2023-05-10T05:58:56;5.03;;;4.38;;
36651;SDS011;53334;51.976;20.144;2023-05-10T06:01:30;4.45;;;4.03;;
36651;SDS011;53334;51.976;20.144;2023-05-10T06:04:03;4.72;;;4.10;;
36651;SDS011;53334;51.976;20.144;2023-05-10T06:06:36;4.32;;;3.92;;
36651;SDS011;53334;51.976;20.144;2023-05-10T06:09:10;6.70;;;4.22;;
36651;SDS011;53334;51.976;20.144;2023-05-10T06:11:45;9.82;;;4.93;;
36651;SDS011;53334;51.976;20.144;2023-05-10T06:14:19;11.18;;;5.55;;
36651;SDS011;53334;51.976;20.144;2023-05-10T06:16:53;7.82;;;5.38;;
36651;SDS011;53334;51.976;20.144;2023-05-10T06:19:26;8.57;;;5.68;;
36651;SDS011;53334;51.976;20.144;2023-05-10T06:22:00;92.63;;;68.18;;
36651;SDS011;53334;51.976;20.144;2023-05-10T06:24:33;94.22;;;75.07;;
36651;SDS011;53334;51.976;20.144;2023-05-10T06:27:07;59.67;;;44.55;;
36651;SDS011;53334;51.976;20.144;2023-05-10T06:29:41;51.78;;;40.85;;
36651;SDS011;53334;51.976;20.144;2023-05-10T06:32:14;58.05;;;45.53;;
36651;SDS011;53334;51.976;20.144;2023-05-10T06:34:47;111.70;;;83.72;;
36651;SDS011;53334;51.976;20.144;2023-05-10T06:37:20;109.97;;;76.90;;
36651;SDS011;53334;51.976;20.144;2023-05-10T06:39:54;122.82;;;84.75;;
36651;SDS011;53334;51.976;20.144;2023-05-10T06:42:28;91.03;;;67.40;;
36651;SDS011;53334;51.976;20.144;2023-05-10T06:45:02;96.38;;;71.35;;
36651;SDS011;53334;51.976;20.144;2023-05-10T06:47:36;91.35;;;70.57;;
36651;SDS011;53334;51.976;20.144;2023-05-10T06:50:10;95.82;;;73.88;;
36651;SDS011;53334;51.976;20.144;2023-05-10T06:52:43;95.90;;;70.72;;
36651;SDS011;53334;51.976;20.144;2023-05-10T06:55:17;97.25;;;70.18;;
36651;SDS011;53334;51.976;20.144;2023-05-10T06:57:51;93.38;;;69.13;;
36651;SDS011;53334;51.976;20.144;2023-05-10T07:00:25;90.50;;;63.67;;
36651;SDS011;53334;51.976;20.144;2023-05-10T07:02:58;91.28;;;68.00;;
36651;SDS011;53334;51.976;20.144;2023-05-10T07:05:31;82.97;;;63.70;;
36651;SDS011;53334;51.976;20.144;2023-05-10T07:08:05;76.32;;;59.63;;
36651;SDS011;53334;51.976;20.144;2023-05-10T07:10:38;89.05;;;61.42;;
36651;SDS011;53334;51.976;20.144;2023-05-10T07:13:13;76.20;;;61.72;;
36651;SDS011;53334;51.976;20.144;2023-05-10T07:15:46;78.25;;;58.58;;
36651;SDS011;53334;51.976;20.144;2023-05-10T07:18:20;79.50;;;58.00;;
36651;SDS011;53334;51.976;20.144;2023-05-10T07:20:53;79.15;;;55.35;;
36651;SDS011;53334;51.976;20.144;2023-05-10T07:23:26;71.85;;;53.20;;
36651;SDS011;53334;51.976;20.144;2023-05-10T07:26:00;73.30;;;52.20;;
36651;SDS011;53334;51.976;20.144;2023-05-10T07:28:35;29.60;;;20.45;;
36651;SDS011;53334;51.976;20.144;2023-05-10T07:31:08;19.02;;;11.75;;
36651;SDS011;53334;51.976;20.144;2023-05-10T07:33:42;19.58;;;14.93;;
36651;SDS011;53334;51.976;20.144;2023-05-10T07:36:15;24.77;;;12.57;;
36651;SDS011;53334;51.976;20.144;2023-05-10T07:38:48;20.15;;;12.23;;
36651;SDS011;53334;51.976;20.144;2023-05-10T07:41:22;18.13;;;11.40;;
36651;SDS011;53334;51.976;20.144;2023-05-10T07:43:56;19.73;;;11.82;;
36651;SDS011;53334;51.976;20.144;2023-05-10T07:46:30;14.70;;;12.27;;
36651;SDS011;53334;51.976;20.144;2023-05-10T07:49:03;19.45;;;10.93;;
36651;SDS011;53334;51.976;20.144;2023-05-10T07:51:36;16.20;;;9.80;;
36651;SDS011;53334;51.976;20.144;2023-05-10T07:54:10;11.82;;;9.10;;
36651;SDS011;53334;51.976;20.144;2023-05-10T07:56:44;15.15;;;8.35;;
36651;SDS011;53334;51.976;20.144;2023-05-10T07:59:20;444.63;;;157.55;;
36651;SDS011;53334;51.976;20.144;2023-05-10T08:01:53;637.63;;;242.90;;
36651;SDS011;53334;51.976;20.144;2023-05-10T08:04:27;777.45;;;317.67;;
36651;SDS011;53334;51.976;20.144;2023-05-10T08:07:01;502.45;;;182.73;;
36651;SDS011;53334;51.976;20.144;2023-05-10T08:09:34;447.23;;;150.82;;
36651;SDS011;53334;51.976;20.144;2023-05-10T08:14:43;387.30;;;130.60;;
36651;SDS011;53334;51.976;20.144;2023-05-10T08:17:16;357.90;;;127.95;;
36651;SDS011;53334;51.976;20.144;2023-05-10T08:19:50;392.27;;;136.40;;
36651;SDS011;53334;51.976;20.144;2023-05-10T08:22:24;338.23;;;116.78;;
36651;SDS011;53334;51.976;20.144;2023-05-10T08:24:57;363.45;;;123.90;;
36651;SDS011;53334;51.976;20.144;2023-05-10T08:27:30;343.60;;;118.88;;
36651;SDS011;53334;51.976;20.144;2023-05-10T08:30:06;327.67;;;117.03;;
36651;SDS011;53334;51.976;20.144;2023-05-10T08:32:40;327.85;;;115.63;;
36651;SDS011;53334;51.976;20.144;2023-05-10T08:35:13;285.30;;;102.25;;
36651;SDS011;53334;51.976;20.144;2023-05-10T08:37:47;253.68;;;90.00;;
36651;SDS011;53334;51.976;20.144;2023-05-10T08:40:20;262.70;;;93.03;;
36651;SDS011;53334;51.976;20.144;2023-05-10T08:42:55;245.77;;;89.10;;
36651;SDS011;53334;51.976;20.144;2023-05-10T08:45:36;230.88;;;84.95;;
36651;SDS011;53334;51.976;20.144;2023-05-10T08:48:11;229.65;;;83.72;;
36651;SDS011;53334;51.976;20.144;2023-05-10T08:50:44;206.48;;;77.70;;
36651;SDS011;53334;51.976;20.144;2023-05-10T08:53:20;222.25;;;78.80;;
36651;SDS011;53334;51.976;20.144;2023-05-10T08:55:56;209.13;;;78.05;;
36651;SDS011;53334;51.976;20.144;2023-05-10T09:01:05;200.10;;;75.03;;
36651;SDS011;53334;51.976;20.144;2023-05-10T09:03:39;202.82;;;73.05;;
36651;SDS011;53334;51.976;20.144;2023-05-10T09:06:12;200.05;;;79.57;;
36651;SDS011;53334;51.976;20.144;2023-05-10T09:08:45;192.43;;;71.22;;
36651;SDS011;53334;51.976;20.144;2023-05-10T09:11:20;198.40;;;74.65;;
36651;SDS011;53334;51.976;20.144;2023-05-10T09:13:54;184.00;;;68.15;;
36651;SDS011;53334;51.976;20.144;2023-05-10T09:21:36;127.78;;;47.78;;
36651;SDS011;53334;51.976;20.144;2023-05-10T09:24:11;126.30;;;49.10;;
36651;SDS011;53334;51.976;20.144;2023-05-10T09:26:47;119.57;;;47.47;;
36651;SDS011;53334;51.976;20.144;2023-05-10T09:29:21;109.80;;;43.95;;
36651;SDS011;53334;51.976;20.144;2023-05-10T09:31:56;120.32;;;45.33;;
36651;SDS011;53334;51.976;20.144;2023-05-10T09:34:30;110.50;;;42.40;;
36651;SDS011;53334;51.976;20.144;2023-05-10T09:37:04;78.05;;;31.08;;
36651;SDS011;53334;51.976;20.144;2023-05-10T09:39:39;79.80;;;31.90;;
36651;SDS011;53334;51.976;20.144;2023-05-10T09:42:12;83.57;;;30.08;;
36651;SDS011;53334;51.976;20.144;2023-05-10T09:44:50;80.55;;;29.08;;
36651;SDS011;53334;51.976;20.144;2023-05-10T09:47:25;80.45;;;29.20;;
36651;SDS011;53334;51.976;20.144;2023-05-10T09:49:58;69.82;;;27.77;;
36651;SDS011;53334;51.976;20.144;2023-05-10T09:55:37;63.63;;;26.02;;
36651;SDS011;53334;51.976;20.144;2023-05-10T09:58:12;58.85;;;24.92;;
36651;SDS011;53334;51.976;20.144;2023-05-10T10:03:24;57.85;;;24.40;;
36651;SDS011;53334;51.976;20.144;2023-05-10T10:06:00;67.00;;;24.70;;
36651;SDS011;53334;51.976;20.144;2023-05-10T10:08:34;60.58;;;24.27;;
36651;SDS011;53334;51.976;20.144;2023-05-10T10:11:07;56.10;;;22.67;;
36651;SDS011;53334;51.976;20.144;2023-05-10T10:13:40;42.30;;;20.15;;
36651;SDS011;53334;51.976;20.144;2023-05-10T10:16:14;56.08;;;23.75;;
36651;SDS011;53334;51.976;20.144;2023-05-10T10:18:48;46.63;;;22.02;;
36651;SDS011;53334;51.976;20.144;2023-05-10T10:21:22;50.85;;;21.35;;
36651;SDS011;53334;51.976;20.144;2023-05-10T10:23:56;61.00;;;22.40;;
36651;SDS011;53334;51.976;20.144;2023-05-10T10:26:29;37.15;;;17.67;;
36651;SDS011;53334;51.976;20.144;2023-05-10T10:29:04;44.10;;;19.88;;
36651;SDS011;53334;51.976;20.144;2023-05-10T10:31:46;48.00;;;18.17;;
36651;SDS011;53334;51.976;20.144;2023-05-10T10:34:27;45.55;;;19.65;;
36651;SDS011;53334;51.976;20.144;2023-05-10T10:37:03;42.08;;;18.70;;
36651;SDS011;53334;51.976;20.144;2023-05-10T10:39:38;38.15;;;16.92;;
36651;SDS011;53334;51.976;20.144;2023-05-10T10:42:11;34.33;;;16.60;;
36651;SDS011;53334;51.976;20.144;2023-05-10T10:44:44;38.40;;;17.92;;
36651;SDS011;53334;51.976;20.144;2023-05-10T10:47:23;34.83;;;15.57;;
36651;SDS011;53334;51.976;20.144;2023-05-10T10:50:05;38.58;;;15.15;;
36651;SDS011;53334;51.976;20.144;2023-05-10T10:52:39;30.90;;;14.73;;
36651;SDS011;53334;51.976;20.144;2023-05-10T10:55:13;45.63;;;20.13;;
36651;SDS011;53334;51.976;20.144;2023-05-10T10:57:50;34.60;;;15.48;;
36651;SDS011;53334;51.976;20.144;2023-05-10T11:00:27;32.40;;;14.35;;
36651;SDS011;53334;51.976;20.144;2023-05-10T11:03:03;30.02;;;13.27;;
36651;SDS011;53334;51.976;20.144;2023-05-10T11:05:40;37.53;;;15.07;;
36651;SDS011;53334;51.976;20.144;2023-05-10T11:08:15;27.98;;;13.13;;
36651;SDS011;53334;51.976;20.144;2023-05-10T11:10:52;27.20;;;12.95;;
36651;SDS011;53334;51.976;20.144;2023-05-10T11:13:39;30.88;;;13.18;;
36651;SDS011;53334;51.976;20.144;2023-05-10T11:16:14;22.83;;;11.73;;
36651;SDS011;53334;51.976;20.144;2023-05-10T11:18:53;29.73;;;12.38;;
36651;SDS011;53334;51.976;20.144;2023-05-10T11:21:33;21.50;;;11.88;;
36651;SDS011;53334;51.976;20.144;2023-05-10T11:24:17;24.55;;;10.60;;
36651;SDS011;53334;51.976;20.144;2023-05-10T11:26:51;22.95;;;11.65;;
36651;SDS011;53334;51.976;20.144;2023-05-10T11:29:25;24.42;;;10.77;;
36651;SDS011;53334;51.976;20.144;2023-05-10T11:31:59;24.85;;;10.25;;
36651;SDS011;53334;51.976;20.144;2023-05-10T11:34:32;22.77;;;12.68;;
36651;SDS011;53334;51.976;20.144;2023-05-10T11:37:07;19.73;;;9.27;;
36651;SDS011;53334;51.976;20.144;2023-05-10T11:39:45;18.23;;;9.82;;
36651;SDS011;53334;51.976;20.144;2023-05-10T11:42:19;22.13;;;10.73;;
36651;SDS011;53334;51.976;20.144;2023-05-10T11:44:52;14.15;;;8.85;;
36651;SDS011;53334;51.976;20.144;2023-05-10T11:47:25;17.65;;;9.02;;
36651;SDS011;53334;51.976;20.144;2023-05-10T11:49:59;26.17;;;10.95;;
36651;SDS011;53334;51.976;20.144;2023-05-10T11:52:36;17.35;;;8.73;;
36651;SDS011;53334;51.976;20.144;2023-05-10T11:55:09;11.02;;;7.53;;
36651;SDS011;53334;51.976;20.144;2023-05-10T11:57:42;14.02;;;7.38;;
36651;SDS011;53334;51.976;20.144;2023-05-10T12:00:17;11.57;;;7.53;;
36651;SDS011;53334;51.976;20.144;2023-05-10T12:02:51;16.60;;;7.10;;
36651;SDS011;53334;51.976;20.144;2023-05-10T12:05:24;13.35;;;7.30;;
36651;SDS011;53334;51.976;20.144;2023-05-10T12:08:11;13.70;;;6.97;;
36651;SDS011;53334;51.976;20.144;2023-05-10T12:10:45;13.30;;;6.50;;
36651;SDS011;53334;51.976;20.144;2023-05-10T12:13:18;15.23;;;6.40;;
36651;SDS011;53334;51.976;20.144;2023-05-10T12:15:52;14.85;;;6.57;;
36651;SDS011;53334;51.976;20.144;2023-05-10T12:18:26;10.27;;;4.95;;
36651;SDS011;53334;51.976;20.144;2023-05-10T12:21:02;11.77;;;5.78;;
36651;SDS011;53334;51.976;20.144;2023-05-10T12:23:37;8.85;;;5.30;;
36651;SDS011;53334;51.976;20.144;2023-05-10T12:26:12;9.95;;;5.63;;
36651;SDS011;53334;51.976;20.144;2023-05-10T12:28:45;9.88;;;4.47;;
36651;SDS011;53334;51.976;20.144;2023-05-10T12:31:19;7.07;;;4.30;;
36651;SDS011;53334;51.976;20.144;2023-05-10T12:33:52;10.35;;;4.75;;
36651;SDS011;53334;51.976;20.144;2023-05-10T12:36:25;12.02;;;4.13;;
36651;SDS011;53334;51.976;20.144;2023-05-10T12:39:03;9.85;;;4.63;;
36651;SDS011;53334;51.976;20.144;2023-05-10T12:41:37;9.30;;;4.15;;
36651;SDS011;53334;51.976;20.144;2023-05-10T12:44:13;6.20;;;3.78;;
36651;SDS011;53334;51.976;20.144;2023-05-10T12:46:47;5.47;;;3.63;;
36651;SDS011;53334;51.976;20.144;2023-05-10T12:49:20;12.45;;;4.82;;
36651;SDS011;53334;51.976;20.144;2023-05-10T12:51:53;7.70;;;3.28;;
36651;SDS011;53334;51.976;20.144;2023-05-10T12:54:28;6.13;;;4.22;;
36651;SDS011;53334;51.976;20.144;2023-05-10T12:57:01;7.20;;;3.78;;
36651;SDS011;53334;51.976;20.144;2023-05-10T12:59:34;7.43;;;3.78;;
36651;SDS011;53334;51.976;20.144;2023-05-10T13:02:08;5.88;;;3.78;;
36651;SDS011;53334;51.976;20.144;2023-05-10T13:04:42;8.90;;;4.55;;
36651;SDS011;53334;51.976;20.144;2023-05-10T13:07:15;5.65;;;3.67;;
36651;SDS011;53334;51.976;20.144;2023-05-10T13:09:50;4.25;;;3.33;;
36651;SDS011;53334;51.976;20.144;2023-05-10T13:12:23;6.82;;;3.40;;
36651;SDS011;53334;51.976;20.144;2023-05-10T13:14:56;7.00;;;3.80;;
36651;SDS011;53334;51.976;20.144;2023-05-10T13:17:30;5.93;;;3.97;;
36651;SDS011;53334;51.976;20.144;2023-05-10T13:20:05;5.35;;;3.83;;
36651;SDS011;53334;51.976;20.144;2023-05-10T13:22:39;6.45;;;3.78;;
36651;SDS011;53334;51.976;20.144;2023-05-10T13:25:13;8.80;;;4.07;;
36651;SDS011;53334;51.976;20.144;2023-05-10T13:27:46;6.90;;;3.70;;
36651;SDS011;53334;51.976;20.144;2023-05-10T13:30:20;8.82;;;3.78;;
36651;SDS011;53334;51.976;20.144;2023-05-10T13:32:53;5.97;;;4.13;;
36651;SDS011;53334;51.976;20.144;2023-05-10T13:35:26;10.38;;;3.63;;
36651;SDS011;53334;51.976;20.144;2023-05-10T13:38:00;12.43;;;3.80;;
36651;SDS011;53334;51.976;20.144;2023-05-10T13:40:34;18.25;;;4.60;;
36651;SDS011;53334;51.976;20.144;2023-05-10T13:43:08;12.15;;;4.15;;
36651;SDS011;53334;51.976;20.144;2023-05-10T13:45:41;13.60;;;3.75;;
36651;SDS011;53334;51.976;20.144;2023-05-10T13:48:14;7.95;;;5.07;;
36651;SDS011;53334;51.976;20.144;2023-05-10T13:50:48;9.68;;;3.85;;
36651;SDS011;53334;51.976;20.144;2023-05-10T13:53:21;9.02;;;3.85;;
36651;SDS011;53334;51.976;20.144;2023-05-10T13:55:56;11.20;;;4.20;;
36651;SDS011;53334;51.976;20.144;2023-05-10T13:58:29;13.90;;;4.82;;
36651;SDS011;53334;51.976;20.144;2023-05-10T14:01:02;12.10;;;4.55;;
36651;SDS011;53334;51.976;20.144;2023-05-10T14:03:36;9.65;;;3.88;;
36651;SDS011;53334;51.976;20.144;2023-05-10T14:06:09;15.85;;;5.15;;
36651;SDS011;53334;51.976;20.144;2023-05-10T14:08:43;8.70;;;3.90;;
36651;SDS011;53334;51.976;20.144;2023-05-10T14:11:18;13.00;;;4.78;;
36651;SDS011;53334;51.976;20.144;2023-05-10T14:13:55;16.70;;;4.03;;
36651;SDS011;53334;51.976;20.144;2023-05-10T14:16:28;14.10;;;4.47;;
36651;SDS011;53334;51.976;20.144;2023-05-10T14:19:01;4.53;;;3.00;;
36651;SDS011;53334;51.976;20.144;2023-05-10T14:21:35;13.85;;;4.20;;
36651;SDS011;53334;51.976;20.144;2023-05-10T14:24:08;10.77;;;4.60;;
36651;SDS011;53334;51.976;20.144;2023-05-10T14:26:43;8.98;;;4.25;;
36651;SDS011;53334;51.976;20.144;2023-05-10T14:29:16;7.90;;;3.22;;
36651;SDS011;53334;51.976;20.144;2023-05-10T14:31:50;6.43;;;3.35;;
36651;SDS011;53334;51.976;20.144;2023-05-10T14:34:23;8.18;;;3.55;;
36651;SDS011;53334;51.976;20.144;2023-05-10T14:36:56;4.68;;;3.30;;
36651;SDS011;53334;51.976;20.144;2023-05-10T14:39:30;6.20;;;3.22;;
36651;SDS011;53334;51.976;20.144;2023-05-10T14:42:06;9.25;;;4.18;;
36651;SDS011;53334;51.976;20.144;2023-05-10T14:44:39;10.23;;;4.53;;
36651;SDS011;53334;51.976;20.144;2023-05-10T14:47:12;7.55;;;3.20;;
36651;SDS011;53334;51.976;20.144;2023-05-10T14:49:46;12.52;;;3.67;;
36651;SDS011;53334;51.976;20.144;2023-05-10T14:52:19;8.70;;;3.55;;
36651;SDS011;53334;51.976;20.144;2023-05-10T14:54:52;6.90;;;2.70;;
36651;SDS011;53334;51.976;20.144;2023-05-10T14:57:27;7.95;;;3.28;;
36651;SDS011;53334;51.976;20.144;2023-05-10T15:00:01;7.32;;;3.40;;
36651;SDS011;53334;51.976;20.144;2023-05-10T15:02:35;8.63;;;3.30;;
36651;SDS011;53334;51.976;20.144;2023-05-10T15:07:43;9.23;;;3.38;;
36651;SDS011;53334;51.976;20.144;2023-05-10T15:10:17;9.70;;;3.20;;
36651;SDS011;53334;51.976;20.144;2023-05-10T15:12:51;20.73;;;3.40;;
36651;SDS011;53334;51.976;20.144;2023-05-10T15:15:25;11.45;;;3.30;;
36651;SDS011;53334;51.976;20.144;2023-05-10T15:17:58;9.52;;;3.65;;
36651;SDS011;53334;51.976;20.144;2023-05-10T15:20:31;11.23;;;3.67;;
36651;SDS011;53334;51.976;20.144;2023-05-10T15:23:05;12.20;;;2.90;;
36651;SDS011;53334;51.976;20.144;2023-05-10T15:25:38;7.97;;;3.10;;
36651;SDS011;53334;51.976;20.144;2023-05-10T15:28:13;19.10;;;3.90;;
36651;SDS011;53334;51.976;20.144;2023-05-10T15:30:46;11.50;;;3.20;;
36651;SDS011;53334;51.976;20.144;2023-05-10T15:33:19;15.90;;;4.43;;